Time;durP1;ratioP1;P1;durP2;ratioP2;P2;SDS_P1;SDS_P2;PMS_P1;PMS_P2;Temp;Humidity;BMP_temperature;BMP_pressure;BME280_temperature;BME280_humidity;BME280_pressure;Samples;Min_cycle;Max_cycle;Signal;HPM_P1;HPM_P2
2023/02/15 09:33:20;;;;;;;37.23;18.00;;;;;;;;;;5119361;27;20146;-77
2023/02/15 09:35:46;;;;;;;30.90;17.60;;;;;;;;;;5091327;28;20354;-77
2023/02/15 09:38:12;;;;;;;31.43;17.40;;;;;;;;;;5085862;28;20790;-75
2023/02/15 09:40:41;;;;;;;28.47;16.67;;;;;;;;;;5082388;28;20024;-77
2023/02/15 09:43:15;;;;;;;28.47;17.40;;;;;;;;;;5092548;28;20043;-77
2023/02/15 09:45:41;;;;;;;30.57;18.57;;;;;;;;;;5081887;28;20034;-76
2023/02/15 09:48:30;;;;;;;28.03;17.13;;;;;;;;;;5090859;28;20056;-77
2023/02/15 09:51:20;;;;;;;30.13;17.90;;;;;;;;;;5092638;28;20090;-76
2023/02/15 09:53:52;;;;;;;29.03;16.70;;;;;;;;;;5088526;28;20028;-76
2023/02/15 09:56:27;;;;;;;29.97;16.93;;;;;;;;;;5089232;28;20078;-76
2023/02/15 09:59:13;;;;;;;30.43;18.87;;;;;;;;;;5089216;28;20428;-76
2023/02/15 10:01:39;;;;;;;27.07;16.43;;;;;;;;;;5086401;28;20432;-76
2023/02/15 10:04:20;;;;;;;29.37;16.03;;;;;;;;;;5091363;28;20052;-77
2023/02/15 10:06:54;;;;;;;26.40;15.83;;;;;;;;;;5087939;28;20052;-76
2023/02/15 10:09:26;;;;;;;27.50;15.70;;;;;;;;;;5091535;28;20047;-76
2023/02/15 10:12:02;;;;;;;29.00;17.08;;;;;;;;;;5088791;28;20028;-77
2023/02/15 10:14:28;;;;;;;27.63;16.40;;;;;;;;;;5086112;28;20449;-76
2023/02/15 10:17:13;;;;;;;35.00;18.87;;;;;;;;;;5090117;28;20411;-79
2023/02/15 10:19:42;;;;;;;28.77;18.33;;;;;;;;;;5074817;28;20033;-77
2023/02/15 10:22:08;;;;;;;28.17;17.00;;;;;;;;;;5074593;28;20171;-77
2023/02/15 10:24:37;;;;;;;32.30;18.60;;;;;;;;;;5076471;28;20419;-77
2023/02/15 10:27:10;;;;;;;26.70;16.27;;;;;;;;;;5075196;28;20048;-76
2023/02/15 10:29:37;;;;;;;27.50;16.37;;;;;;;;;;5083286;28;20043;-77
2023/02/15 10:32:33;;;;;;;25.43;15.57;;;;;;;;;;5072959;28;20122;-77
2023/02/15 10:35:32;;;;;;;25.10;16.10;;;;;;;;;;5086908;28;20048;-77
2023/02/15 10:38:02;;;;;;;30.53;16.57;;;;;;;;;;5068134;28;20029;-77
2023/02/15 10:40:31;;;;;;;28.37;17.40;;;;;;;;;;5072820;28;20048;-76
2023/02/15 10:43:00;;;;;;;26.93;15.67;;;;;;;;;;5073170;28;20048;-77
2023/02/15 10:45:50;;;;;;;27.07;16.27;;;;;;;;;;5058901;28;20097;-78
2023/02/15 10:48:22;;;;;;;26.10;16.33;;;;;;;;;;5058465;28;20043;-77
2023/02/15 10:50:48;;;;;;;29.75;18.02;;;;;;;;;;5061229;28;20094;-77
2023/02/15 10:53:50;;;;;;;25.43;16.93;;;;;;;;;;5060113;28;20465;-77
2023/02/15 10:56:34;;;;;;;26.23;14.07;;;;;;;;;;5045573;28;20499;-77
2023/02/15 10:59:06;;;;;;;25.07;14.80;;;;;;;;;;5056263;28;20048;-77
2023/02/15 11:01:48;;;;;;;26.98;16.40;;;;;;;;;;5063513;28;20017;-76
2023/02/15 11:04:14;;;;;;;23.60;14.23;;;;;;;;;;5059476;28;20104;-76
2023/02/15 11:06:43;;;;;;;27.87;15.90;;;;;;;;;;5062949;28;20182;-77
2023/02/15 11:09:15;;;;;;;24.70;15.53;;;;;;;;;;5066701;28;20017;-76
2023/02/15 11:11:43;;;;;;;26.15;14.52;;;;;;;;;;5068066;28;20079;-77
2023/02/15 11:14:20;;;;;;;21.53;14.93;;;;;;;;;;5056661;28;20035;-77
2023/02/15 11:16:47;;;;;;;25.50;15.53;;;;;;;;;;5060143;28;20024;-77
2023/02/15 11:19:22;;;;;;;32.00;19.43;;;;;;;;;;5067190;28;20107;-76
2023/02/15 11:21:55;;;;;;;30.57;17.87;;;;;;;;;;5066829;28;20082;-77
2023/02/15 11:24:22;;;;;;;26.47;15.83;;;;;;;;;;5068963;28;20083;-77
2023/02/15 11:26:52;;;;;;;32.30;17.63;;;;;;;;;;5060292;28;20025;-77
2023/02/15 11:29:27;;;;;;;25.47;16.57;;;;;;;;;;5069520;28;20910;-77
2023/02/15 11:31:55;;;;;;;28.17;17.60;;;;;;;;;;5060033;28;20158;-77
2023/02/15 11:34:28;;;;;;;28.47;16.90;;;;;;;;;;5059682;28;20037;-76
2023/02/15 11:36:53;;;;;;;;;;;;;;;;;;5060451;28;20459;-77
2023/02/15 11:39:21;;;;;;;26.63;16.47;;;;;;;;;;5090962;28;19995;-77
2023/02/15 11:41:53;;;;;;;29.00;17.80;;;;;;;;;;5059053;28;20165;-76
2023/02/15 11:44:20;;;;;;;26.75;17.20;;;;;;;;;;5063013;28;20043;-77
2023/02/15 11:46:46;;;;;;;26.87;16.77;;;;;;;;;;5061591;28;20108;-76
2023/02/15 11:49:28;;;;;;;25.20;15.47;;;;;;;;;;5057819;28;20576;-77
2023/02/15 11:51:54;;;;;;;24.93;15.70;;;;;;;;;;5095812;28;20184;-77
2023/02/15 11:54:23;;;;;;;24.47;16.40;;;;;;;;;;5058563;28;20033;-78
2023/02/15 11:56:49;;;;;;;26.63;15.67;;;;;;;;;;5063412;28;20025;-77
2023/02/15 11:59:19;;;;;;;20.60;13.93;;;;;;;;;;5059406;28;20167;-77
2023/02/15 12:01:46;;;;;;;26.13;14.00;;;;;;;;;;5056164;28;20068;-77
2023/02/15 12:04:12;;;;;;;25.47;15.03;;;;;;;;;;5057217;28;20028;-77
2023/02/15 12:06:42;;;;;;;26.97;15.93;;;;;;;;;;5058506;28;20024;-77
2023/02/15 12:09:34;;;;;;;25.47;14.50;;;;;;;;;;5058706;28;20024;-77
2023/02/15 12:12:19;;;;;;;22.98;14.15;;;;;;;;;;5058050;28;21629;-76
2023/02/15 12:14:48;;;;;;;23.27;15.07;;;;;;;;;;5061869;28;20024;-78
2023/02/15 12:17:14;;;;;;;26.07;15.10;;;;;;;;;;5061119;28;20360;-77
2023/02/15 12:19:41;;;;;;;25.20;14.67;;;;;;;;;;5057267;28;20440;-76
2023/02/15 12:22:26;;;;;;;26.07;15.00;;;;;;;;;;5077620;28;20043;-78
2023/02/15 12:24:54;;;;;;;24.30;14.87;;;;;;;;;;5075401;28;20024;-77
2023/02/15 12:27:30;;;;;;;22.90;14.87;;;;;;;;;;5075832;28;20040;-78
2023/02/15 12:30:02;;;;;;;23.37;14.90;;;;;;;;;;5076636;28;20033;-77
2023/02/15 12:32:34;;;;;;;22.63;14.63;;;;;;;;;;5069415;28;20508;-76
2023/02/15 12:35:02;;;;;;;24.13;14.57;;;;;;;;;;5092178;28;20028;-77
2023/02/15 12:37:31;;;;;;;21.77;14.77;;;;;;;;;;5078386;28;20162;-77
2023/02/15 12:40:18;;;;;;;20.90;13.60;;;;;;;;;;5067164;28;20544;-78
2023/02/15 12:42:45;;;;;;;23.67;14.47;;;;;;;;;;5065781;28;20036;-78
2023/02/15 12:45:22;;;;;;;23.80;15.50;;;;;;;;;;5077466;28;20063;-77
2023/02/15 12:48:08;;;;;;;23.23;14.33;;;;;;;;;;5074615;28;20119;-77
2023/02/15 12:50:34;;;;;;;21.37;14.30;;;;;;;;;;5076535;28;20040;-78
2023/02/15 12:53:08;;;;;;;22.63;13.97;;;;;;;;;;5056641;28;20048;-76
2023/02/15 12:55:34;;;;;;;25.60;14.97;;;;;;;;;;5055386;28;20036;-77
2023/02/15 12:58:18;;;;;;;23.73;15.17;;;;;;;;;;5055728;28;20079;-77
2023/02/15 13:00:45;;;;;;;21.17;14.07;;;;;;;;;;5065936;28;20115;-76
2023/02/15 13:03:17;;;;;;;21.60;13.27;;;;;;;;;;5056870;28;20070;-77
2023/02/15 13:05:45;;;;;;;20.67;14.05;;;;;;;;;;5066000;28;20115;-77
2023/02/15 13:08:17;;;;;;;21.83;13.70;;;;;;;;;;5057986;28;20060;-79
2023/02/15 13:10:52;;;;;;;21.73;13.90;;;;;;;;;;5058295;28;20028;-77
2023/02/15 13:13:21;;;;;;;21.63;13.97;;;;;;;;;;5057469;28;20024;-77
2023/02/15 13:15:51;;;;;;;20.40;13.17;;;;;;;;;;5063070;28;20117;-77
2023/02/15 13:18:21;;;;;;;25.80;14.30;;;;;;;;;;5058052;28;20020;-77
2023/02/15 13:20:48;;;;;;;22.07;12.73;;;;;;;;;;5067749;28;20025;-77
2023/02/15 13:23:23;;;;;;;25.60;13.77;;;;;;;;;;5058171;28;20037;-77
2023/02/15 13:25:54;;;;;;;21.77;13.77;;;;;;;;;;5057540;28;20021;-77
2023/02/15 13:28:23;;;;;;;23.63;14.77;;;;;;;;;;5057510;28;20122;-76
2023/02/15 13:30:52;;;;;;;21.37;14.30;;;;;;;;;;5061483;28;20025;-76
2023/02/15 13:33:21;;;;;;;23.93;15.53;;;;;;;;;;5060853;28;20033;-77
2023/02/15 13:35:50;;;;;;;24.33;16.60;;;;;;;;;;5064912;28;20028;-78
2023/02/15 13:38:22;;;;;;;23.23;12.77;;;;;;;;;;5079279;28;20052;-76
2023/02/15 13:40:51;;;;;;;23.98;14.18;;;;;;;;;;5076256;28;21596;-77
2023/02/15 13:43:28;;;;;;;21.20;13.63;;;;;;;;;;5075573;28;20039;-78
2023/02/15 13:46:13;;;;;;;22.37;13.57;;;;;;;;;;5064151;28;20047;-76
2023/02/15 13:48:57;;;;;;;19.53;12.80;;;;;;;;;;5075965;28;20110;-77
2023/02/15 13:51:40;;;;;;;19.27;14.03;;;;;;;;;;5068376;28;20036;-76
2023/02/15 13:54:25;;;;;;;31.20;14.50;;;;;;;;;;5077730;28;20036;-77
2023/02/15 13:56:54;;;;;;;23.40;13.63;;;;;;;;;;5068117;28;20021;-76
2023/02/15 13:59:40;;;;;;;19.03;12.67;;;;;;;;;;5079463;28;20106;-78
2023/02/15 14:02:06;;;;;;;21.07;13.07;;;;;;;;;;5078016;28;20111;-77
2023/02/15 14:04:32;;;;;;;19.00;12.25;;;;;;;;;;5056172;28;20516;-78
2023/02/15 14:07:01;;;;;;;17.52;12.23;;;;;;;;;;5060592;28;20352;-77
2023/02/15 14:09:30;;;;;;;17.65;11.55;;;;;;;;;;5078786;28;20040;-76
2023/02/15 14:12:17;;;;;;;19.90;12.82;;;;;;;;;;5078292;28;20118;-78
2023/02/15 14:14:46;;;;;;;19.73;11.23;;;;;;;;;;5059196;28;20031;-77
2023/02/15 14:17:15;;;;;;;19.17;11.85;;;;;;;;;;5076931;28;20417;-76
2023/02/15 14:19:41;;;;;;;20.55;12.45;;;;;;;;;;5080463;28;20028;-78
2023/02/15 14:22:19;;;;;;;19.13;13.48;;;;;;;;;;5064446;28;20047;-80
2023/02/15 14:24:57;;;;;;;16.42;11.00;;;;;;;;;;5062273;28;20029;-77
2023/02/15 14:27:44;;;;;;;16.48;10.57;;;;;;;;;;5081873;28;20040;-77
2023/02/15 14:30:17;;;;;;;16.52;10.75;;;;;;;;;;5043864;28;20081;-77
2023/02/15 14:32:44;;;;;;;17.95;11.88;;;;;;;;;;5063862;28;20032;-76
2023/02/15 14:35:15;;;;;;;15.93;11.15;;;;;;;;;;5065552;28;20032;-78
2023/02/15 14:38:07;;;;;;;21.17;10.45;;;;;;;;;;5072343;28;20032;-78
2023/02/15 14:41:00;;;;;;;19.02;11.68;;;;;;;;;;5040314;28;20051;-77
2023/02/15 14:43:33;;;;;;;18.30;10.88;;;;;;;;;;5070707;28;20116;-77
2023/02/15 14:46:19;;;;;;;21.75;11.25;;;;;;;;;;5095535;28;20101;-77
2023/02/15 14:48:45;;;;;;;23.25;11.80;;;;;;;;;;5077002;28;20086;-77
2023/02/15 14:51:12;;;;;;;18.50;10.75;;;;;;;;;;5093413;28;20932;-77
2023/02/15 14:53:41;;;;;;;21.98;13.52;;;;;;;;;;5077644;28;20012;-77
2023/02/15 14:56:10;;;;;;;19.40;12.07;;;;;;;;;;5102309;28;20031;-76
2023/02/15 14:58:57;;;;;;;15.82;10.95;;;;;;;;;;5077557;28;20457;-77
2023/02/15 15:01:30;;;;;;;20.02;11.90;;;;;;;;;;5078969;28;20039;-77
2023/02/15 15:04:11;;;;;;;27.23;12.63;;;;;;;;;;5076152;28;20042;-78
2023/02/15 15:06:39;;;;;;;21.88;12.00;;;;;;;;;;5076796;28;20024;-76
2023/02/15 15:09:22;;;;;;;20.15;13.15;;;;;;;;;;5099661;28;20024;-77
2023/02/15 15:11:52;;;;;;;19.33;12.23;;;;;;;;;;5092015;28;20032;-77
2023/02/15 15:14:33;;;;;;;19.63;12.50;;;;;;;;;;5079564;28;20345;-76
2023/02/15 15:17:01;;;;;;;19.70;12.57;;;;;;;;;;5076763;28;20576;-78
2023/02/15 15:19:45;;;;;;;24.60;14.47;;;;;;;;;;5095116;28;20020;-78
2023/02/15 15:22:18;;;;;;;19.97;12.83;;;;;;;;;;5079058;28;20036;-77
2023/02/15 15:24:44;;;;;;;23.23;13.97;;;;;;;;;;5096645;28;20035;-78
2023/02/15 15:27:29;;;;;;;21.40;13.57;;;;;;;;;;5074501;28;20024;-77
2023/02/15 15:29:55;;;;;;;22.00;14.67;;;;;;;;;;5096904;28;20024;-77
2023/02/15 15:32:25;;;;;;;20.80;13.60;;;;;;;;;;5076669;28;20070;-77
2023/02/15 15:35:04;;;;;;;19.57;13.60;;;;;;;;;;5079249;28;20448;-77
2023/02/15 15:37:30;;;;;;;18.60;12.73;;;;;;;;;;5092149;28;20078;-77
2023/02/15 15:39:56;;;;;;;19.70;12.73;;;;;;;;;;5078965;28;20389;-77
2023/02/15 15:42:28;;;;;;;21.60;14.40;;;;;;;;;;5072937;28;20040;-77
2023/02/15 15:45:15;;;;;;;22.73;14.35;;;;;;;;;;5077757;28;20410;-77
2023/02/15 15:47:41;;;;;;;20.10;13.77;;;;;;;;;;5070425;28;20393;-77
2023/02/15 15:50:14;;;;;;;22.73;13.67;;;;;;;;;;5067517;28;20142;-77
2023/02/15 15:52:43;;;;;;;24.77;14.43;;;;;;;;;;5076912;28;20042;-77
2023/02/15 15:55:16;;;;;;;21.67;15.27;;;;;;;;;;5077478;28;20050;-78
2023/02/15 15:57:43;;;;;;;21.07;14.27;;;;;;;;;;5078488;28;20028;-77
2023/02/15 16:00:24;;;;;;;24.00;15.07;;;;;;;;;;5075092;28;20407;-77
2023/02/15 16:02:51;;;;;;;22.07;14.23;;;;;;;;;;5080192;28;20075;-77
2023/02/15 16:05:17;;;;;;;21.23;15.33;;;;;;;;;;5078691;28;20127;-77
2023/02/15 16:07:43;;;;;;;22.37;14.63;;;;;;;;;;5078134;28;20380;-77
2023/02/15 16:10:21;;;;;;;22.00;13.27;;;;;;;;;;5078681;28;20028;-77
2023/02/15 16:12:48;;;;;;;24.80;15.43;;;;;;;;;;5066411;28;20024;-77
2023/02/15 16:15:17;;;;;;;27.97;15.33;;;;;;;;;;5077802;28;20178;-77
2023/02/15 16:17:44;;;;;;;29.47;14.97;;;;;;;;;;5101280;28;20028;-78
2023/02/15 16:20:22;;;;;;;22.33;15.30;;;;;;;;;;5069394;28;20035;-76
2023/02/15 16:22:50;;;;;;;24.73;15.60;;;;;;;;;;5078841;28;20039;-77
2023/02/15 16:25:28;;;;;;;24.53;14.70;;;;;;;;;;5077790;28;20052;-76
2023/02/15 16:27:54;;;;;;;21.73;16.10;;;;;;;;;;5078126;28;20040;-76
2023/02/15 16:30:20;;;;;;;23.93;14.53;;;;;;;;;;5063944;28;20100;-77
2023/02/15 16:32:46;;;;;;;25.93;15.40;;;;;;;;;;5078424;28;20043;-77
2023/02/15 16:35:16;;;;;;;24.63;16.00;;;;;;;;;;5076445;28;20032;-76
2023/02/15 16:37:43;;;;;;;30.40;16.47;;;;;;;;;;5078159;28;20082;-75
2023/02/15 16:40:24;;;;;;;28.90;15.90;;;;;;;;;;5060559;28;20083;-76
2023/02/15 16:42:51;;;;;;;27.47;16.83;;;;;;;;;;5075022;28;20516;-76
2023/02/15 16:45:19;;;;;;;25.73;15.80;;;;;;;;;;5077000;28;20245;-77
2023/02/15 16:47:47;;;;;;;29.00;18.13;;;;;;;;;;5058861;28;20112;-77
2023/02/15 16:50:21;;;;;;;23.83;16.03;;;;;;;;;;5062601;28;20044;-77
2023/02/15 16:52:47;;;;;;;33.23;15.07;;;;;;;;;;5076613;28;20043;-76
2023/02/15 16:55:22;;;;;;;27.13;16.30;;;;;;;;;;5077682;28;20032;-77
2023/02/15 16:57:48;;;;;;;25.93;15.67;;;;;;;;;;5077392;28;20064;-76
2023/02/15 17:00:22;;;;;;;28.33;17.30;;;;;;;;;;5058999;28;20040;-76
2023/02/15 17:02:58;;;;;;;28.60;15.90;;;;;;;;;;5075332;28;20429;-77
2023/02/15 17:05:24;;;;;;;27.77;17.07;;;;;;;;;;5077180;28;20024;-76
2023/02/15 17:07:52;;;;;;;24.03;15.73;;;;;;;;;;5057894;28;20032;-76
2023/02/15 17:10:26;;;;;;;27.90;17.07;;;;;;;;;;5077259;28;20032;-76
2023/02/15 17:12:57;;;;;;;27.53;16.13;;;;;;;;;;5075623;28;20060;-75
2023/02/15 17:15:26;;;;;;;26.40;16.67;;;;;;;;;;5079368;28;20068;-75
2023/02/15 17:17:52;;;;;;;23.33;16.03;;;;;;;;;;5063334;28;20093;-76
2023/02/15 17:20:19;;;;;;;28.90;17.10;;;;;;;;;;5081621;28;20028;-77
2023/02/15 17:22:45;;;;;;;30.27;16.57;;;;;;;;;;5093116;28;20648;-76
2023/02/15 17:25:20;;;;;;;26.50;15.93;;;;;;;;;;5073889;28;20043;-76
2023/02/15 17:27:51;;;;;;;25.47;15.93;;;;;;;;;;5076593;28;20062;-76
2023/02/15 17:30:21;;;;;;;28.40;17.67;;;;;;;;;;5079354;28;20036;-75
2023/02/15 17:32:58;;;;;;;23.87;16.00;;;;;;;;;;5077571;28;20563;-76
2023/02/15 17:35:27;;;;;;;27.07;16.30;;;;;;;;;;5077735;28;20028;-76
2023/02/15 17:38:02;;;;;;;22.53;15.50;;;;;;;;;;5077049;28;20453;-75
2023/02/15 17:40:35;;;;;;;28.50;17.30;;;;;;;;;;5063253;28;20055;-76
2023/02/15 17:43:02;;;;;;;28.00;17.67;;;;;;;;;;5068035;28;20025;-76
2023/02/15 17:45:32;;;;;;;25.13;16.30;;;;;;;;;;5074789;28;20029;-75
2023/02/15 17:47:59;;;;;;;32.33;20.03;;;;;;;;;;5060710;28;20472;-75
2023/02/15 17:50:27;;;;;;;29.83;18.60;;;;;;;;;;5076420;28;20123;-76
2023/02/15 17:52:54;;;;;;;27.37;16.50;;;;;;;;;;5077230;28;20120;-76
2023/02/15 17:55:42;;;;;;;28.07;16.43;;;;;;;;;;5065913;28;20024;-76
2023/02/15 17:58:08;;;;;;;25.90;16.73;;;;;;;;;;5076229;28;20024;-76
2023/02/15 18:11:38;;;;;;;26.07;16.23;;;;;;;;;;5080537;28;20124;-75
2023/02/15 18:14:06;;;;;;;27.07;17.43;;;;;;;;;;5062917;28;20036;-75
2023/02/15 18:16:44;;;;;;;28.13;17.50;;;;;;;;;;5098951;28;20770;-75
2023/02/15 18:19:14;;;;;;;26.50;17.07;;;;;;;;;;5079414;28;20091;-76
2023/02/15 18:21:40;;;;;;;31.10;17.70;;;;;;;;;;5085492;28;20024;-75
2023/02/15 18:24:09;;;;;;;35.33;21.37;;;;;;;;;;5068404;28;20542;-76
2023/02/15 18:26:35;;;;;;;29.37;18.03;;;;;;;;;;5081746;28;20032;-76
2023/02/15 18:29:01;;;;;;;32.60;19.57;;;;;;;;;;5061805;28;20051;-76
2023/02/15 18:31:27;;;;;;;28.80;16.67;;;;;;;;;;5078896;28;20063;-77
2023/02/15 18:33:54;;;;;;;31.30;17.30;;;;;;;;;;5063461;28;20064;-76
2023/02/15 18:36:22;;;;;;;26.60;16.83;;;;;;;;;;5079050;28;20449;-76
2023/02/15 18:38:48;;;;;;;25.43;16.03;;;;;;;;;;5061584;28;20032;-76
2023/02/15 18:41:16;;;;;;;28.17;16.73;;;;;;;;;;5066064;28;20033;-76
2023/02/15 18:43:47;;;;;;;28.03;15.77;;;;;;;;;;5078198;28;20032;-76
2023/02/15 18:46:13;;;;;;;25.63;16.87;;;;;;;;;;5067061;28;20051;-77
2023/02/15 18:48:39;;;;;;;27.17;16.93;;;;;;;;;;5079774;28;20846;-76
2023/02/15 18:51:15;;;;;;;28.50;16.93;;;;;;;;;;5071480;28;20032;-75
2023/02/15 18:53:45;;;;;;;31.80;17.13;;;;;;;;;;5077069;28;20028;-76
2023/02/15 18:56:18;;;;;;;32.97;19.27;;;;;;;;;;5077458;28;20017;-76
2023/02/15 18:58:48;;;;;;;34.80;20.03;;;;;;;;;;5080509;28;20067;-77
2023/02/15 19:01:19;;;;;;;34.93;19.80;;;;;;;;;;5073000;28;20024;-76
2023/02/15 19:03:49;;;;;;;37.20;20.77;;;;;;;;;;5066163;28;20021;-75
2023/02/15 19:06:19;;;;;;;35.23;20.57;;;;;;;;;;5062272;28;20115;-76
2023/02/15 19:08:49;;;;;;;29.70;18.77;;;;;;;;;;5077557;28;20171;-76
2023/02/15 19:11:21;;;;;;;37.90;20.33;;;;;;;;;;5063678;28;20028;-75
2023/02/15 19:13:48;;;;;;;30.15;18.25;;;;;;;;;;5080146;28;20024;-76
2023/02/15 19:16:34;;;;;;;30.97;18.83;;;;;;;;;;5062016;28;20453;-76
2023/02/15 19:19:01;;;;;;;29.43;18.13;;;;;;;;;;5063753;28;20391;-76
2023/02/15 19:21:30;;;;;;;31.47;19.60;;;;;;;;;;5065625;28;20057;-76
2023/02/15 19:23:58;;;;;;;31.47;18.50;;;;;;;;;;5062501;28;20453;-76
2023/02/15 19:26:25;;;;;;;33.93;19.23;;;;;;;;;;5069614;28;20028;-76
2023/02/15 19:28:51;;;;;;;31.87;18.97;;;;;;;;;;5080358;28;20114;-76
2023/02/15 19:31:17;;;;;;;26.83;17.80;;;;;;;;;;5069085;28;20037;-76
2023/02/15 19:33:44;;;;;;;36.37;20.27;;;;;;;;;;5064080;28;20058;-77
2023/02/15 19:36:16;;;;;;;33.30;20.43;;;;;;;;;;5064053;28;20020;-75
2023/02/15 19:38:53;;;;;;;34.03;20.77;;;;;;;;;;5074664;28;20498;-76
2023/02/15 19:41:32;;;;;;;33.73;20.97;;;;;;;;;;5068156;28;20028;-74
2023/02/15 19:43:58;;;;;;;37.97;22.00;;;;;;;;;;5081086;28;20039;-76
2023/02/15 19:46:27;;;;;;;35.33;20.57;;;;;;;;;;5079857;28;21745;-74
2023/02/15 19:48:54;;;;;;;34.80;20.37;;;;;;;;;;5064600;28;20327;-75
2023/02/15 19:51:21;;;;;;;29.30;18.53;;;;;;;;;;5082231;28;20425;-76
2023/02/15 19:53:48;;;;;;;35.67;18.37;;;;;;;;;;5066314;28;20025;-75
2023/02/15 19:56:17;;;;;;;35.33;21.43;;;;;;;;;;5081974;28;20029;-76
2023/02/15 19:58:43;;;;;;;33.03;22.03;;;;;;;;;;5078763;28;20114;-76
2023/02/15 20:01:09;;;;;;;36.60;21.17;;;;;;;;;;5063766;28;20107;-76
2023/02/15 20:03:38;;;;;;;33.37;19.33;;;;;;;;;;5083539;28;20103;-76
2023/02/15 20:06:04;;;;;;;36.97;19.47;;;;;;;;;;5071898;28;20052;-77
2023/02/15 20:08:33;;;;;;;32.00;19.50;;;;;;;;;;5080593;28;20751;-75
2023/02/15 20:10:59;;;;;;;28.43;19.43;;;;;;;;;;5065070;28;20077;-76
2023/02/15 20:13:27;;;;;;;29.43;19.23;;;;;;;;;;5077949;28;20024;-77
2023/02/15 20:15:53;;;;;;;29.30;18.53;;;;;;;;;;5069435;28;20024;-74
2023/02/15 20:18:19;;;;;;;31.03;19.47;;;;;;;;;;5063703;28;20039;-76
2023/02/15 20:20:48;;;;;;;31.07;19.07;;;;;;;;;;5062596;28;20346;-77
2023/02/15 20:23:19;;;;;;;34.73;20.10;;;;;;;;;;5079749;28;20051;-76
2023/02/15 20:25:45;;;;;;;28.23;18.03;;;;;;;;;;5081024;28;20114;-76
2023/02/15 20:28:19;;;;;;;33.40;20.33;;;;;;;;;;5077338;28;20032;-75
2023/02/15 20:30:48;;;;;;;27.27;17.97;;;;;;;;;;5077914;28;20028;-75
2023/02/15 20:33:17;;;;;;;34.07;19.57;;;;;;;;;;5078676;28;20555;-74
2023/02/15 20:35:43;;;;;;;30.20;17.90;;;;;;;;;;5068313;28;20037;-75
2023/02/15 20:38:28;;;;;;;27.03;17.50;;;;;;;;;;5062661;28;20036;-75
2023/02/15 20:43:47;;;;;;;34.30;19.23;;;;;;;;;;5093064;28;20484;-75
2023/02/15 20:46:13;;;;;;;31.63;19.33;;;;;;;;;;5071437;28;20409;-76
2023/02/15 20:48:39;;;;;;;31.33;19.77;;;;;;;;;;5093842;28;21559;-75
2023/02/15 20:51:08;;;;;;;35.07;20.70;;;;;;;;;;5091254;28;20057;-76
2023/02/15 20:53:34;;;;;;;32.97;20.43;;;;;;;;;;5102843;28;20036;-76
2023/02/15 20:56:00;;;;;;;29.57;19.50;;;;;;;;;;5094716;28;20440;-77
2023/02/15 20:58:27;;;;;;;32.07;19.83;;;;;;;;;;5077384;28;20027;-76
2023/02/15 21:00:54;;;;;;;37.00;23.20;;;;;;;;;;5077259;28;20027;-76
2023/02/15 21:03:23;;;;;;;32.50;19.70;;;;;;;;;;5077147;28;20119;-76
2023/02/15 21:05:49;;;;;;;37.27;21.33;;;;;;;;;;5077184;28;20020;-77
2023/02/15 21:08:16;;;;;;;39.30;21.67;;;;;;;;;;5088620;28;20040;-77
2023/02/15 21:10:44;;;;;;;34.67;20.90;;;;;;;;;;5076953;28;20081;-76
2023/02/15 21:13:21;;;;;;;33.93;20.03;;;;;;;;;;5085666;28;20510;-76
2023/02/15 21:15:49;;;;;;;38.10;20.63;;;;;;;;;;5094336;28;20027;-77
2023/02/15 21:18:21;;;;;;;34.30;19.87;;;;;;;;;;5082602;28;20034;-78
2023/02/15 21:20:50;;;;;;;37.13;20.90;;;;;;;;;;5076625;28;20107;-77
2023/02/15 21:23:19;;;;;;;33.80;19.77;;;;;;;;;;5076367;28;20060;-77
2023/02/15 21:25:45;;;;;;;32.20;20.87;;;;;;;;;;5076793;28;20093;-77
2023/02/15 21:28:19;;;;;;;33.37;20.07;;;;;;;;;;5075910;28;20044;-78
2023/02/15 21:30:45;;;;;;;39.67;22.47;;;;;;;;;;5071153;28;20027;-76
2023/02/15 21:33:11;;;;;;;37.93;21.97;;;;;;;;;;5091986;28;20044;-77
2023/02/15 21:35:37;;;;;;;36.57;22.33;;;;;;;;;;5070820;28;20032;-78
2023/02/15 21:38:03;;;;;;;40.47;22.67;;;;;;;;;;5073578;28;20104;-77
2023/02/15 21:40:30;;;;;;;37.60;21.03;;;;;;;;;;5090517;28;20467;-78
2023/02/15 21:48:26;;;;;;;41.93;23.80;;;;;;;;;;5086165;28;20431;-76
2023/02/15 21:53:44;;;;;;;39.43;22.73;;;;;;;;;;5094846;28;20113;-76
2023/02/15 21:56:18;;;;;;;41.67;23.33;;;;;;;;;;5070662;28;20607;-75
2023/02/15 21:58:44;;;;;;;36.90;22.23;;;;;;;;;;5092527;28;20017;-76
2023/02/15 22:01:19;;;;;;;39.07;21.70;;;;;;;;;;5075016;28;20115;-76
2023/02/15 22:03:47;;;;;;;36.70;23.17;;;;;;;;;;5074944;28;20062;-76
2023/02/15 22:06:13;;;;;;;39.13;23.13;;;;;;;;;;5073152;28;20029;-76
2023/02/15 22:08:39;;;;;;;42.03;24.20;;;;;;;;;;5089476;28;20104;-76
2023/02/15 22:11:11;;;;;;;43.40;23.83;;;;;;;;;;5075537;28;20119;-76
2023/02/15 22:13:37;;;;;;;42.42;24.17;;;;;;;;;;5069857;28;20032;-76
2023/02/15 22:16:03;;;;;;;43.13;25.40;;;;;;;;;;5073685;28;20107;-77
2023/02/15 22:18:34;;;;;;;40.63;23.63;;;;;;;;;;5067138;28;20020;-76
2023/02/15 22:21:00;;;;;;;42.30;24.13;;;;;;;;;;5066644;28;20032;-75
2023/02/15 22:23:26;;;;;;;44.83;25.30;;;;;;;;;;5058322;28;20032;-76
2023/02/15 22:25:53;;;;;;;41.73;24.60;;;;;;;;;;5076472;28;20349;-75
2023/02/15 22:28:21;;;;;;;45.33;25.27;;;;;;;;;;5067575;28;20886;-76
2023/02/15 22:30:47;;;;;;;43.43;25.53;;;;;;;;;;5077741;28;20024;-77
2023/02/15 22:33:24;;;;;;;43.33;24.77;;;;;;;;;;5059930;28;20108;-76
2023/02/15 22:35:50;;;;;;;44.17;26.27;;;;;;;;;;5077987;28;20029;-75
2023/02/15 22:38:16;;;;;;;39.33;23.37;;;;;;;;;;5060810;28;20384;-76
2023/02/15 22:40:42;;;;;;;44.67;25.73;;;;;;;;;;5095205;28;20032;-75
2023/02/15 22:43:12;;;;;;;47.57;25.30;;;;;;;;;;5079811;28;20036;-75
2023/02/15 22:45:38;;;;;;;46.50;26.43;;;;;;;;;;5064544;28;20352;-76
2023/02/15 22:48:05;;;;;;;49.33;28.50;;;;;;;;;;5080212;28;20082;-75
2023/02/15 22:50:32;;;;;;;45.47;26.73;;;;;;;;;;5081345;28;20086;-75
2023/02/15 22:53:02;;;;;;;49.97;26.27;;;;;;;;;;5082339;28;20036;-75
2023/02/15 22:55:30;;;;;;;47.10;26.30;;;;;;;;;;5078117;28;20023;-77
2023/02/15 22:57:57;;;;;;;44.77;26.13;;;;;;;;;;5063788;28;20031;-76
2023/02/15 23:00:29;;;;;;;48.47;24.93;;;;;;;;;;5064859;28;20111;-77
2023/02/15 23:02:55;;;;;;;44.25;25.80;;;;;;;;;;5071745;28;20036;-78
2023/02/15 23:05:26;;;;;;;44.43;26.07;;;;;;;;;;5064869;28;20040;-76
2023/02/15 23:07:52;;;;;;;47.57;26.27;;;;;;;;;;5066520;28;20047;-76
2023/02/15 23:10:22;;;;;;;47.80;26.90;;;;;;;;;;5065677;28;20377;-76
2023/02/15 23:15:42;;;;;;;49.53;26.30;;;;;;;;;;5082362;28;20745;-76
2023/02/15 23:18:11;;;;;;;48.67;27.83;;;;;;;;;;5079611;28;20059;-77
2023/02/15 23:20:39;;;;;;;47.53;25.80;;;;;;;;;;5079058;28;20029;-77
2023/02/15 23:23:08;;;;;;;48.73;26.67;;;;;;;;;;5078718;28;20028;-76
2023/02/15 23:25:33;;;;;;;49.00;24.87;;;;;;;;;;5077731;28;20031;-77
2023/02/15 23:27:59;;;;;;;48.37;27.40;;;;;;;;;;5078085;28;20040;-76
2023/02/15 23:30:25;;;;;;;44.87;26.10;;;;;;;;;;5063637;28;20127;-77
2023/02/15 23:32:53;;;;;;;45.93;25.97;;;;;;;;;;5066111;28;20043;-76
2023/02/15 23:35:19;;;;;;;48.73;26.27;;;;;;;;;;5070789;28;20086;-78
2023/02/15 23:37:46;;;;;;;46.07;26.10;;;;;;;;;;5067815;28;20036;-77
2023/02/15 23:43:00;;;;;;;45.83;25.97;;;;;;;;;;5082097;28;20070;-77
2023/02/15 23:45:26;;;;;;;50.03;28.33;;;;;;;;;;5073340;28;20024;-77
2023/02/15 23:50:37;;;;;;;46.33;27.83;;;;;;;;;;5082604;28;20095;-75
2023/02/15 23:53:03;;;;;;;57.87;29.40;;;;;;;;;;5061223;28;20060;-77
2023/02/15 23:55:34;;;;;;;52.43;27.63;;;;;;;;;;5068355;28;20035;-77
2023/02/15 23:58:06;;;;;;;51.90;27.77;;;;;;;;;;5065481;28;20282;-77
